New York, New York
Traffic Map
Current Weather Conditions
New York, New York
Overcast
Overcast
73°
Feels Like: 73°
Wind Chill: 73° Ceiling: 2000
Heat Index: 73° Visibility: 10mi
Dew Point: 63° Wind: 3mph
Humidity: 71% Direction: ° ()
Pressure: 30.16in Gusts: 0mph
Raw Report DataKNYC 310751Z AUTO VRB03KT 10SM BKN020 BKN029 OVC046 23/17 A3016 RMK AO2 SLP201 T02280172 $
Traffic Incident Summary
Active as of:
Severity:
Category:
InformationThere was an issue retrieving the traffic information for this location. Please try a different location or try again shortly.
Advertisements
Track Severe Weather on mobile